createdAt,value
2022-08-07T00:01:12.701Z,7.28
2022-08-07T00:06:29.764Z,6.40
2022-08-07T00:11:35.633Z,7.20
2022-08-07T00:16:50.377Z,6.55
2022-08-07T00:21:56.780Z,7.13
2022-08-07T00:27:07.288Z,6.68
2022-08-07T00:32:13.884Z,6.78
2022-08-07T00:37:17.551Z,6.35
2022-08-07T00:42:20.592Z,6.95
2022-08-07T00:52:53.718Z,6.72
2022-08-07T00:57:56.728Z,7.25
2022-08-07T01:02:59.286Z,7.13
2022-08-07T01:08:01.373Z,6.25
2022-08-07T01:13:03.804Z,6.68
2022-08-07T01:18:06.990Z,5.10
2022-08-07T01:23:15.268Z,6.55
2022-08-07T01:28:18.245Z,7.78
2022-08-07T01:33:24.715Z,6.82
2022-08-07T01:38:33.863Z,7.32
2022-08-07T01:43:47.256Z,8.52
2022-08-07T01:48:49.795Z,7.55
2022-08-07T01:54:12.414Z,8.18
2022-08-07T01:59:32.862Z,8.48
2022-08-07T02:04:57.194Z,9.00
2022-08-07T02:10:07.518Z,9.57
2022-08-07T02:15:23.528Z,10.07
2022-08-07T02:20:31.370Z,10.98
2022-08-07T02:26:31.905Z,10.48
2022-08-07T02:31:10.130Z,10.93
2022-08-07T02:36:31.776Z,11.20
2022-08-07T02:41:41.136Z,11.93
2022-08-07T02:46:55.286Z,12.18
2022-08-07T02:52:01.723Z,12.07
2022-08-07T02:57:06.528Z,12.57
2022-08-07T03:02:10.462Z,12.55
2022-08-07T03:07:15.121Z,11.35
2022-08-07T03:12:22.537Z,12.82
2022-08-07T03:17:53.973Z,11.43
2022-08-07T03:22:59.750Z,11.65
2022-08-07T03:28:09.517Z,12.15
2022-08-07T03:33:27.257Z,11.10
2022-08-07T03:38:43.919Z,11.43
2022-08-07T03:43:57.445Z,10.77
2022-08-07T03:49:04.503Z,10.30
2022-08-07T03:54:35.446Z,10.40
2022-08-07T03:59:37.561Z,9.32
2022-08-07T04:04:50.301Z,8.30
2022-08-07T04:09:53.305Z,9.52
2022-08-07T04:15:01.258Z,8.45
2022-08-07T04:20:12.010Z,7.97
2022-08-07T04:25:15.663Z,8.57
2022-08-07T04:30:21.451Z,8.07
2022-08-07T04:35:51.511Z,7.50
2022-08-07T04:40:59.661Z,8.05
2022-08-07T04:46:59.706Z,7.20
2022-08-07T04:52:34.242Z,7.00
2022-08-07T04:58:24.119Z,6.40
2022-08-07T05:04:00.604Z,5.88
2022-08-07T05:09:01.168Z,5.93
2022-08-07T05:14:51.971Z,6.13
2022-08-07T05:19:46.242Z,5.90
2022-08-07T05:24:55.652Z,6.50
2022-08-07T05:30:00.386Z,5.45
2022-08-07T05:35:03.527Z,4.55
2022-08-07T05:40:18.796Z,4.40
2022-08-07T05:45:31.963Z,4.05
2022-08-07T05:50:50.587Z,3.90
2022-08-07T05:56:02.006Z,3.50
2022-08-07T06:01:10.815Z,3.20
2022-08-07T06:06:17.463Z,3.53
2022-08-07T06:11:22.966Z,3.33
2022-08-07T06:16:32.263Z,3.03
2022-08-07T06:22:14.391Z,2.95
2022-08-07T06:26:58.882Z,2.85
2022-08-07T06:32:06.202Z,2.35
2022-08-07T06:37:10.687Z,2.67
2022-08-07T06:47:48.152Z,2.70
2022-08-07T06:53:04.590Z,2.92
2022-08-07T06:58:12.527Z,2.40
2022-08-07T07:03:39.597Z,3.38
2022-08-07T07:08:46.775Z,2.67
2022-08-07T07:13:58.044Z,2.78
2022-08-07T07:19:54.608Z,2.78
2022-08-07T07:24:29.164Z,2.88
2022-08-07T07:29:56.280Z,3.05
2022-08-07T07:35:04.082Z,3.35
2022-08-07T07:40:14.587Z,3.60
2022-08-07T07:45:19.362Z,3.13
2022-08-07T07:50:35.973Z,1.52
2022-08-07T07:55:45.596Z,1.60
2022-08-07T08:00:58.600Z,2.20
2022-08-07T08:06:02.227Z,2.00
2022-08-07T08:11:07.992Z,1.80
2022-08-07T08:16:17.274Z,1.23
2022-08-07T08:22:02.581Z,1.95
2022-08-07T08:27:09.338Z,3.90
2022-08-07T08:32:18.049Z,1.85
2022-08-07T08:38:00.506Z,1.60
2022-08-07T08:42:56.231Z,1.63
2022-08-07T08:48:32.344Z,1.65
2022-08-07T08:53:54.887Z,2.33
2022-08-07T08:59:13.867Z,2.38
2022-08-07T09:04:30.252Z,2.28
2022-08-07T09:09:36.721Z,2.50
2022-08-07T09:15:00.531Z,2.30
2022-08-07T09:20:42.872Z,2.40
2022-08-07T09:26:22.599Z,1.73
2022-08-07T09:31:54.099Z,2.58
2022-08-07T09:37:08.070Z,2.20
2022-08-07T09:42:43.971Z,2.40
2022-08-07T09:48:50.281Z,1.95
2022-08-07T09:54:02.655Z,1.85
2022-08-07T09:59:46.705Z,2.42
2022-08-07T10:05:13.944Z,2.97
2022-08-07T10:10:22.782Z,2.10
2022-08-07T10:15:45.182Z,2.22
2022-08-07T10:21:19.983Z,1.85
2022-08-07T10:26:53.052Z,1.60
2022-08-07T10:32:37.050Z,1.67
2022-08-07T10:38:21.120Z,1.17
2022-08-07T10:44:08.506Z,1.40
2022-08-07T10:49:49.250Z,1.50
2022-08-07T10:55:01.811Z,1.25
2022-08-07T11:00:39.466Z,1.77
2022-08-07T11:06:21.840Z,1.52
2022-08-07T11:11:37.640Z,1.50
2022-08-07T11:17:07.296Z,1.67
2022-08-07T11:22:46.003Z,2.42
2022-08-07T11:28:04.879Z,2.70
2022-08-07T11:33:59.242Z,2.72
2022-08-07T11:39:19.561Z,2.50
2022-08-07T11:44:36.233Z,3.22
2022-08-07T11:50:31.306Z,3.17
2022-08-07T11:56:09.010Z,3.20
2022-08-07T12:01:25.780Z,3.28
2022-08-07T12:07:10.098Z,3.70
2022-08-07T12:12:28.365Z,3.45
2022-08-07T12:17:58.574Z,3.13
2022-08-07T12:23:09.209Z,2.80
2022-08-07T12:28:44.856Z,2.90
2022-08-07T12:33:56.432Z,3.63
2022-08-07T12:39:42.052Z,3.03
2022-08-07T12:44:30.253Z,2.70
2022-08-07T12:50:34.371Z,2.10
2022-08-07T12:56:02.750Z,2.40
2022-08-07T13:01:06.484Z,33.20
2022-08-07T13:07:00.023Z,2.90
2022-08-07T13:12:17.391Z,1.92
2022-08-07T13:17:39.954Z,1.50
2022-08-07T13:23:09.952Z,1.85
2022-08-07T13:28:39.739Z,1.67
2022-08-07T13:34:33.034Z,1.20
2022-08-07T13:40:32.850Z,1.20
2022-08-07T13:46:07.179Z,1.15
2022-08-07T13:50:34.180Z,1.10
2022-08-07T13:55:55.118Z,1.42
2022-08-07T14:01:09.042Z,1.20
2022-08-07T14:06:12.774Z,1.20
2022-08-07T14:11:19.148Z,1.30
2022-08-07T14:16:33.084Z,1.67
2022-08-07T14:22:02.123Z,1.25
2022-08-07T14:32:43.140Z,1.23
2022-08-07T14:38:05.821Z,1.40
2022-08-07T14:43:58.834Z,1.38
2022-08-07T14:48:41.856Z,1.35
2022-08-07T14:54:05.816Z,1.38
2022-08-07T15:00:03.032Z,1.55
2022-08-07T15:04:40.109Z,1.60
2022-08-07T15:15:08.411Z,1.40
2022-08-07T15:25:55.895Z,2.05
2022-08-07T15:48:00.390Z,2.50
2022-08-07T15:53:02.527Z,2.03
2022-08-07T15:58:10.469Z,2.40
2022-08-07T16:03:46.970Z,2.15
2022-08-07T16:08:49.645Z,2.75
2022-08-07T16:14:20.726Z,2.30
2022-08-07T16:19:59.072Z,2.47
2022-08-07T16:25:52.334Z,1.90
2022-08-07T16:31:49.978Z,2.20
2022-08-07T16:38:04.139Z,1.73
2022-08-07T16:43:01.997Z,2.60
2022-08-07T16:49:10.639Z,1.90
2022-08-07T16:54:32.505Z,2.17
2022-08-07T17:00:17.544Z,2.28
2022-08-07T17:06:19.133Z,2.28
2022-08-07T17:11:27.990Z,2.33
2022-08-07T17:17:04.431Z,1.98
2022-08-07T17:22:15.609Z,1.92
2022-08-07T17:27:23.179Z,2.30
2022-08-07T17:32:53.165Z,1.85
2022-08-07T17:38:33.427Z,2.10
2022-08-07T17:44:01.621Z,2.30
2022-08-07T17:49:23.365Z,2.33
2022-08-07T17:54:54.004Z,2.70
2022-08-07T18:00:05.750Z,2.43
2022-08-07T18:05:21.422Z,2.58
2022-08-07T18:10:39.002Z,2.30
2022-08-07T18:16:13.173Z,2.00
2022-08-07T18:21:51.453Z,2.60
2022-08-07T18:27:18.354Z,2.15
2022-08-07T18:33:10.440Z,2.50
2022-08-07T18:38:57.672Z,2.85
2022-08-07T18:45:09.172Z,3.63
2022-08-07T18:50:30.354Z,2.80
2022-08-07T18:56:00.346Z,2.90
2022-08-07T19:02:33.927Z,2.88
2022-08-07T19:06:55.633Z,2.53
2022-08-07T19:12:20.757Z,3.50
2022-08-07T19:17:55.970Z,2.85
2022-08-07T19:23:17.718Z,2.50
2022-08-07T19:28:57.148Z,2.72
2022-08-07T19:33:58.061Z,3.50
2022-08-07T19:39:09.090Z,3.28
2022-08-07T19:44:21.891Z,3.70
2022-08-07T19:49:57.490Z,3.22
2022-08-07T19:54:56.354Z,4.15
2022-08-07T20:00:08.964Z,4.10
2022-08-07T20:06:00.785Z,3.75
2022-08-07T20:11:04.014Z,3.47
2022-08-07T20:16:35.584Z,2.75
2022-08-07T20:21:47.152Z,3.45
2022-08-07T20:26:54.733Z,3.42
2022-08-07T20:32:02.190Z,3.70
2022-08-07T20:37:05.945Z,3.33
2022-08-07T20:42:11.858Z,3.67
2022-08-07T20:47:24.876Z,3.63
2022-08-07T20:52:50.297Z,5.57
2022-08-07T20:58:03.669Z,5.03
2022-08-07T21:03:19.244Z,7.37
2022-08-07T21:08:37.888Z,7.03
2022-08-07T21:14:16.531Z,7.82
2022-08-07T21:19:13.855Z,8.70
2022-08-07T21:24:21.941Z,9.05
2022-08-07T21:30:02.334Z,9.05
2022-08-07T21:35:12.273Z,8.80
2022-08-07T21:40:36.193Z,8.43
2022-08-07T21:46:10.778Z,9.38
2022-08-07T21:51:32.337Z,8.80
2022-08-07T21:57:30.948Z,9.07
2022-08-07T22:02:46.152Z,8.43
2022-08-07T22:07:58.048Z,8.90
2022-08-07T22:13:09.398Z,8.68
2022-08-07T22:18:20.374Z,8.10
2022-08-07T22:23:40.282Z,8.15
2022-08-07T22:29:03.360Z,7.82
2022-08-07T22:34:13.172Z,8.52
2022-08-07T22:39:53.181Z,8.20
2022-08-07T22:45:00.042Z,8.43
2022-08-07T22:50:48.293Z,8.40
2022-08-07T22:56:08.638Z,8.88
2022-08-07T23:01:41.959Z,9.40
2022-08-07T23:07:40.301Z,8.57
2022-08-07T23:13:48.991Z,9.57
2022-08-07T23:19:48.025Z,8.98
2022-08-07T23:24:56.772Z,8.63
2022-08-07T23:30:37.429Z,8.85
2022-08-07T23:35:55.916Z,7.83
2022-08-07T23:41:47.473Z,8.48
2022-08-07T23:47:16.199Z,8.68
2022-08-07T23:53:06.210Z,9.18
2022-08-07T23:58:18.706Z,8.60
